createdAt,value
2018-07-21T00:00:54.858Z,7.27
2018-07-21T00:03:25.133Z,7.20
2018-07-21T00:05:54.994Z,8.83
2018-07-21T00:08:25.050Z,8.30
2018-07-21T00:10:55.546Z,8.10
2018-07-21T00:13:25.578Z,8.43
2018-07-21T00:15:55.367Z,8.23
2018-07-21T00:18:25.331Z,7.80
2018-07-21T00:20:55.626Z,7.53
2018-07-21T00:23:25.570Z,7.97
2018-07-21T00:25:55.447Z,8.10
2018-07-21T00:28:25.494Z,9.87
2018-07-21T00:31:08.688Z,8.33
2018-07-21T00:33:38.493Z,9.10
2018-07-21T00:36:08.593Z,8.23
2018-07-21T00:38:38.466Z,8.20
2018-07-21T00:41:09.132Z,8.73
2018-07-21T00:43:50.462Z,8.20
2018-07-21T00:46:20.659Z,7.93
2018-07-21T00:48:50.751Z,8.43
2018-07-21T00:51:20.524Z,9.37
2018-07-21T00:54:03.150Z,8.23
2018-07-21T00:56:32.904Z,8.60
2018-07-21T00:59:02.771Z,8.10
2018-07-21T01:01:32.618Z,8.27
2018-07-21T01:04:02.778Z,8.67
2018-07-21T01:06:32.673Z,9.67
2018-07-21T01:09:02.532Z,9.33
2018-07-21T01:11:32.579Z,8.83
2018-07-21T01:14:02.728Z,8.73
2018-07-21T01:16:32.643Z,10.43
2018-07-21T01:19:02.502Z,9.37
2018-07-21T01:21:32.370Z,9.73
2018-07-21T01:24:02.234Z,8.60
2018-07-21T01:26:33.276Z,8.97
2018-07-21T01:29:05.697Z,9.30
2018-07-21T01:31:35.981Z,8.10
2018-07-21T01:34:05.807Z,9.53
2018-07-21T01:36:37.202Z,8.50
2018-07-21T01:39:10.011Z,9.00
2018-07-21T01:41:39.927Z,11.83
2018-07-21T01:44:10.273Z,8.47
2018-07-21T01:46:40.016Z,8.80
2018-07-21T01:49:09.825Z,8.60
2018-07-21T01:51:40.101Z,8.97
2018-07-21T01:54:09.963Z,7.83
2018-07-21T01:56:39.734Z,10.50
2018-07-21T01:59:09.695Z,9.60
2018-07-21T02:01:41.203Z,8.90
2018-07-21T02:04:11.051Z,8.43
2018-07-21T02:06:41.730Z,9.93
2018-07-21T02:09:13.151Z,9.00
2018-07-21T02:11:43.010Z,10.13
2018-07-21T02:14:12.854Z,7.40
2018-07-21T02:16:42.922Z,8.00
2018-07-21T02:19:12.696Z,8.70
2018-07-21T02:21:42.935Z,7.63
2018-07-21T02:24:15.492Z,9.63
2018-07-21T02:27:11.580Z,7.80
2018-07-21T02:29:42.102Z,8.50
2018-07-21T02:32:34.151Z,7.80
2018-07-21T02:35:05.268Z,9.17
2018-07-21T02:37:53.988Z,8.20
2018-07-21T02:40:23.858Z,8.37
2018-07-21T02:42:54.213Z,8.57
2018-07-21T02:45:24.098Z,9.37
2018-07-21T02:47:55.796Z,8.37
2018-07-21T02:50:25.830Z,8.90
2018-07-21T02:52:55.726Z,8.33
2018-07-21T02:55:25.891Z,8.57
2018-07-21T02:57:55.773Z,8.53
2018-07-21T03:00:25.826Z,7.83
2018-07-21T03:02:56.050Z,8.03
2018-07-21T03:05:26.265Z,9.60
2018-07-21T03:07:56.142Z,8.47
2018-07-21T03:10:26.867Z,9.70
2018-07-21T03:12:56.842Z,7.57
2018-07-21T03:15:26.624Z,8.90
2018-07-21T03:17:57.902Z,10.80
2018-07-21T03:20:27.706Z,7.97
2018-07-21T03:22:57.521Z,7.53
2018-07-21T03:27:18.542Z,9.17
2018-07-21T03:29:48.653Z,7.40
2018-07-21T03:32:18.725Z,7.73
2018-07-21T03:34:49.110Z,8.33
2018-07-21T03:37:19.123Z,9.40
2018-07-21T03:39:49.271Z,7.90
2018-07-21T03:42:35.318Z,7.10
2018-07-21T03:45:05.338Z,7.80
2018-07-21T03:47:35.439Z,7.37
2018-07-21T03:50:06.190Z,8.00
2018-07-21T03:52:36.301Z,7.57
2018-07-21T03:55:06.345Z,8.93
2018-07-21T03:57:36.348Z,7.03
2018-07-21T04:00:06.569Z,8.27
2018-07-21T04:02:36.433Z,7.10
2018-07-21T04:05:09.679Z,7.73
2018-07-21T04:07:39.543Z,7.57
2018-07-21T04:10:09.490Z,7.53
2018-07-21T04:12:39.472Z,8.00
2018-07-21T04:15:10.906Z,8.00
2018-07-21T04:17:40.936Z,8.90
2018-07-21T04:20:10.992Z,8.13
2018-07-21T04:22:40.857Z,7.40
2018-07-21T04:25:10.734Z,8.70
2018-07-21T04:27:40.611Z,9.03
2018-07-21T04:30:10.929Z,9.23
2018-07-21T04:32:41.768Z,8.13
2018-07-21T04:35:11.607Z,7.97
2018-07-21T04:37:41.596Z,8.20
2018-07-21T04:40:11.432Z,9.10
2018-07-21T04:42:41.329Z,10.50
2018-07-21T04:45:11.672Z,9.00
2018-07-21T04:47:41.587Z,11.43
2018-07-21T04:50:11.659Z,9.43
2018-07-21T04:52:42.098Z,10.93
2018-07-21T04:55:12.260Z,8.40
2018-07-21T04:57:42.265Z,9.70
2018-07-21T05:00:13.275Z,9.03
2018-07-21T05:02:44.156Z,10.33
2018-07-21T05:05:14.333Z,9.20
2018-07-21T05:07:51.513Z,10.33
2018-07-21T05:10:21.543Z,11.40
2018-07-21T05:12:52.121Z,10.47
2018-07-21T05:15:22.036Z,9.60
2018-07-21T05:18:09.230Z,10.80
2018-07-21T05:20:39.313Z,12.53
2018-07-21T05:23:09.742Z,9.60
2018-07-21T05:31:51.795Z,9.57
2018-07-21T05:34:21.642Z,9.70
2018-07-21T05:36:51.494Z,8.57
2018-07-21T05:39:21.383Z,10.03
2018-07-21T05:41:51.920Z,9.10
2018-07-21T05:44:21.822Z,7.87
2018-07-21T05:46:51.681Z,8.33
2018-07-21T05:49:21.658Z,7.63
2018-07-21T05:51:51.510Z,7.00
2018-07-21T05:54:21.306Z,9.40
2018-07-21T05:56:53.802Z,7.90
2018-07-21T05:59:23.731Z,8.90
2018-07-21T06:01:53.610Z,11.27
2018-07-21T06:04:27.305Z,7.73
2018-07-21T06:06:57.271Z,7.70
2018-07-21T06:09:28.543Z,9.17
2018-07-21T06:11:58.453Z,8.07
2018-07-21T06:14:28.484Z,10.00
2018-07-21T06:16:58.488Z,7.73
2018-07-21T06:19:28.760Z,8.70
2018-07-21T06:21:58.722Z,9.20
2018-07-21T06:24:28.912Z,10.17
2018-07-21T06:26:59.277Z,9.90
2018-07-21T06:29:29.207Z,10.07
2018-07-21T06:31:59.155Z,10.33
2018-07-21T06:34:29.172Z,9.60
2018-07-21T06:37:18.014Z,10.07
2018-07-21T06:39:48.514Z,10.13
2018-07-21T06:42:18.527Z,9.93
2018-07-21T06:44:48.429Z,9.47
2018-07-21T06:47:18.346Z,9.80
2018-07-21T06:49:48.923Z,10.60
2018-07-21T06:52:19.251Z,10.03
2018-07-21T06:54:49.677Z,10.07
2018-07-21T06:57:19.568Z,10.00
2018-07-21T06:59:50.022Z,11.77
2018-07-21T07:02:20.161Z,10.30
2018-07-21T07:04:50.340Z,10.40
2018-07-21T07:07:21.612Z,10.50
2018-07-21T07:09:51.638Z,11.63
2018-07-21T07:12:23.785Z,11.00
2018-07-21T07:14:54.022Z,9.63
2018-07-21T07:17:25.770Z,10.37
2018-07-21T07:20:13.027Z,12.13
2018-07-21T07:22:44.662Z,9.30
2018-07-21T07:25:15.788Z,9.07
2018-07-21T07:27:46.119Z,9.67
2018-07-21T07:30:26.301Z,10.53
2018-07-21T07:32:56.334Z,9.60
2018-07-21T07:35:27.967Z,11.53
2018-07-21T07:37:58.135Z,9.97
2018-07-21T07:40:27.971Z,10.30
2018-07-21T07:42:57.900Z,12.53
2018-07-21T07:45:31.339Z,9.03
2018-07-21T07:48:01.465Z,9.13
2018-07-21T07:50:31.264Z,9.37
2018-07-21T07:53:01.211Z,9.70
2018-07-21T07:55:32.187Z,11.00
2018-07-21T07:58:03.521Z,12.40
2018-07-21T08:00:33.623Z,9.80
2018-07-21T08:03:03.758Z,10.77
2018-07-21T08:05:34.088Z,10.50
2018-07-21T08:08:03.947Z,10.00
2018-07-21T08:10:33.908Z,9.17
2018-07-21T08:13:09.871Z,10.00
2018-07-21T08:15:39.684Z,10.07
2018-07-21T08:18:10.886Z,9.37
2018-07-21T08:20:40.741Z,9.27
2018-07-21T08:23:11.045Z,8.47
2018-07-21T08:25:40.932Z,10.57
2018-07-21T08:28:11.529Z,12.80
2018-07-21T08:30:41.422Z,9.53
2018-07-21T08:33:11.689Z,9.20
2018-07-21T08:35:41.704Z,9.50
2018-07-21T08:38:11.997Z,10.30
2018-07-21T08:40:42.809Z,10.33
2018-07-21T08:43:12.902Z,8.90
2018-07-21T08:45:43.461Z,8.60
2018-07-21T08:48:13.282Z,9.10
2018-07-21T08:50:43.456Z,9.43
2018-07-21T08:53:13.978Z,9.37
2018-07-21T08:55:46.264Z,8.90
2018-07-21T08:58:16.138Z,9.53
2018-07-21T09:00:46.092Z,8.53
2018-07-21T09:03:16.029Z,9.53
2018-07-21T09:05:46.017Z,8.20
2018-07-21T09:08:16.011Z,10.60
2018-07-21T09:10:46.266Z,10.33
2018-07-21T09:13:16.296Z,8.73
2018-07-21T09:15:46.275Z,10.53
2018-07-21T09:18:16.306Z,10.13
2018-07-21T09:20:46.797Z,11.57
2018-07-21T09:23:16.957Z,11.43
2018-07-21T09:25:47.854Z,12.73
2018-07-21T09:28:17.780Z,12.30
2018-07-21T09:30:47.861Z,12.47
2018-07-21T09:33:17.834Z,11.80
2018-07-21T09:35:48.342Z,11.87
2018-07-21T09:38:18.258Z,12.30
2018-07-21T09:40:49.626Z,15.60
2018-07-21T09:43:19.498Z,15.97
2018-07-21T09:45:49.392Z,15.50
2018-07-21T09:48:19.431Z,15.03
2018-07-21T09:50:49.866Z,14.27
2018-07-21T09:53:20.088Z,13.50
2018-07-21T09:55:49.997Z,16.27
2018-07-21T09:58:19.890Z,14.73
2018-07-21T10:00:55.002Z,16.83
2018-07-21T10:03:25.162Z,14.87
2018-07-21T10:05:56.054Z,19.60
2018-07-21T10:08:26.022Z,17.57
2018-07-21T10:10:55.978Z,17.07
2018-07-21T10:13:27.273Z,19.73
2018-07-21T10:15:57.730Z,18.73
2018-07-21T10:18:27.760Z,18.87
2018-07-21T10:20:57.681Z,20.73
2018-07-21T10:23:28.574Z,15.77
2018-07-21T10:26:28.120Z,14.07
2018-07-21T10:29:03.192Z,13.40
2018-07-21T10:31:33.697Z,13.93
2018-07-21T10:34:03.819Z,15.93
2018-07-21T10:36:33.889Z,19.27
2018-07-21T10:39:04.661Z,19.93
2018-07-21T10:41:34.802Z,16.53
2018-07-21T10:44:09.626Z,15.53
2018-07-21T10:46:39.710Z,15.63
2018-07-21T10:49:11.069Z,17.43
2018-07-21T10:51:41.112Z,15.40
2018-07-21T10:54:10.914Z,13.47
2018-07-21T10:56:40.838Z,11.00
2018-07-21T10:59:12.383Z,12.77
2018-07-21T11:01:42.295Z,11.17
2018-07-21T11:04:12.831Z,11.37
2018-07-21T11:06:42.731Z,10.30
2018-07-21T11:09:13.095Z,9.77
2018-07-21T11:11:42.976Z,11.37
2018-07-21T11:14:12.970Z,12.40
2018-07-21T11:16:43.699Z,12.80
2018-07-21T11:19:21.926Z,18.90
2018-07-21T11:21:52.081Z,38.73
2018-07-21T11:24:22.555Z,20.17
2018-07-21T11:26:52.547Z,12.80
2018-07-21T11:29:22.416Z,17.70
2018-07-21T11:31:52.642Z,9.83
2018-07-21T11:34:23.234Z,17.53
2018-07-21T11:36:53.147Z,13.97
2018-07-21T11:39:29.655Z,12.90
2018-07-21T11:42:00.667Z,13.10
2018-07-21T11:44:30.672Z,13.43
2018-07-21T11:47:02.346Z,16.80
2018-07-21T11:49:33.727Z,15.70
2018-07-21T11:52:06.936Z,15.23
2018-07-21T11:54:37.303Z,15.00
2018-07-21T11:57:08.810Z,15.57
2018-07-21T11:59:38.878Z,14.97
2018-07-21T12:02:09.439Z,15.30
2018-07-21T12:04:39.840Z,12.93
2018-07-21T12:07:09.902Z,12.13
2018-07-21T12:09:39.999Z,13.83
2018-07-21T12:12:10.001Z,12.57
2018-07-21T12:14:39.983Z,12.73
2018-07-21T12:17:10.634Z,17.57
2018-07-21T12:19:46.609Z,14.50
2018-07-21T12:22:16.857Z,13.83
2018-07-21T12:24:50.095Z,12.67
2018-07-21T12:27:20.910Z,13.40
2018-07-21T12:29:52.297Z,14.00
2018-07-21T12:32:23.053Z,13.43
2018-07-21T12:34:54.409Z,13.87
2018-07-21T12:37:24.860Z,12.70
2018-07-21T12:39:55.252Z,13.63
2018-07-21T12:42:25.662Z,10.93
2018-07-21T12:44:55.643Z,10.93
2018-07-21T12:47:25.613Z,14.33
2018-07-21T12:49:59.502Z,12.10
2018-07-21T12:52:29.655Z,13.83
2018-07-21T12:54:59.560Z,12.50
2018-07-21T12:57:30.251Z,10.00
2018-07-21T13:00:01.745Z,12.97
2018-07-21T13:02:31.983Z,9.10
2018-07-21T13:05:02.465Z,10.07
2018-07-21T13:07:32.899Z,9.83
2018-07-21T13:10:02.827Z,7.77
2018-07-21T13:12:33.655Z,7.93
2018-07-21T13:15:03.786Z,8.37
2018-07-21T13:17:34.086Z,7.20
2018-07-21T13:20:04.128Z,5.67
2018-07-21T13:22:34.644Z,5.97
2018-07-21T13:25:12.950Z,5.67
2018-07-21T13:27:43.020Z,6.00
2018-07-21T13:30:13.347Z,5.50
2018-07-21T13:32:43.225Z,4.20
2018-07-21T13:35:15.790Z,5.33
2018-07-21T13:37:58.578Z,4.80
2018-07-21T13:40:28.737Z,5.50
2018-07-21T13:42:58.645Z,3.53
2018-07-21T13:45:28.619Z,4.90
2018-07-21T13:47:58.582Z,5.77
2018-07-21T13:50:30.270Z,6.13
2018-07-21T13:53:00.512Z,4.53
2018-07-21T13:55:30.818Z,4.63
2018-07-21T13:58:01.164Z,5.33
2018-07-21T14:00:48.532Z,5.47
2018-07-21T14:06:03.112Z,5.80
2018-07-21T14:08:33.236Z,5.90
2018-07-21T14:11:12.750Z,5.97
2018-07-21T14:13:42.741Z,6.43
2018-07-21T14:16:12.758Z,6.23
2018-07-21T14:18:51.283Z,5.67
2018-07-21T14:21:24.872Z,4.90
2018-07-21T14:23:55.346Z,6.13
2018-07-21T14:26:25.379Z,4.83
2018-07-21T14:28:55.354Z,5.00
2018-07-21T14:31:25.707Z,4.90
2018-07-21T14:33:55.537Z,5.07
2018-07-21T14:36:27.896Z,4.47
2018-07-21T14:38:57.689Z,6.00
2018-07-21T14:41:29.575Z,4.70
2018-07-21T14:43:59.640Z,4.27
2018-07-21T14:46:30.300Z,4.77
2018-07-21T14:49:00.616Z,4.20
2018-07-21T14:51:30.768Z,3.90
2018-07-21T14:54:00.779Z,4.00
2018-07-21T14:56:32.693Z,3.83
2018-07-21T14:59:02.641Z,3.83
2018-07-21T15:01:32.633Z,5.53
2018-07-21T15:04:02.822Z,4.77
2018-07-21T15:06:34.331Z,4.27
2018-07-21T15:09:05.058Z,6.30
2018-07-21T15:11:35.354Z,4.30
2018-07-21T15:14:06.989Z,4.27
2018-07-21T15:16:37.274Z,5.40
2018-07-21T15:19:07.428Z,7.47
2018-07-21T15:21:39.852Z,4.70
2018-07-21T15:24:09.803Z,5.47
2018-07-21T15:26:39.967Z,5.03
2018-07-21T15:29:09.982Z,4.53
2018-07-21T15:31:40.948Z,4.53
2018-07-21T15:34:11.120Z,6.27
2018-07-21T15:36:41.715Z,5.03
2018-07-21T15:39:11.649Z,5.53
2018-07-21T15:41:41.615Z,5.87
2018-07-21T15:44:12.144Z,5.20
2018-07-21T15:46:42.453Z,4.67
2018-07-21T15:55:08.342Z,4.13
2018-07-21T15:57:38.228Z,5.73
2018-07-21T16:00:08.376Z,4.93
2018-07-21T16:02:38.375Z,5.20
2018-07-21T16:05:10.803Z,5.10
2018-07-21T16:07:40.804Z,5.40
2018-07-21T16:10:10.941Z,5.90
2018-07-21T16:12:40.896Z,5.07
2018-07-21T16:15:11.289Z,5.20
2018-07-21T16:17:41.240Z,4.83
2018-07-21T16:20:12.069Z,5.83
2018-07-21T16:22:42.028Z,5.90
2018-07-21T16:25:12.820Z,6.70
2018-07-21T16:27:44.878Z,5.47
2018-07-21T16:30:15.940Z,5.70
2018-07-21T16:32:45.988Z,6.47
2018-07-21T16:35:18.271Z,6.07
2018-07-21T16:37:51.472Z,7.50
2018-07-21T16:40:21.588Z,6.53
2018-07-21T16:43:01.240Z,7.33
2018-07-21T16:45:31.450Z,7.60
2018-07-21T16:48:04.394Z,7.57
2018-07-21T16:50:34.347Z,6.70
2018-07-21T16:53:04.673Z,6.37
2018-07-21T16:55:34.643Z,6.53
2018-07-21T16:58:06.433Z,7.33
2018-07-21T17:00:36.853Z,5.80
2018-07-21T17:03:07.298Z,8.87
2018-07-21T17:05:43.532Z,6.37
2018-07-21T17:08:13.581Z,5.47
2018-07-21T17:10:44.104Z,5.57
2018-07-21T17:13:16.956Z,5.10
2018-07-21T17:15:46.979Z,5.03
2018-07-21T17:18:17.640Z,5.63
2018-07-21T17:20:52.581Z,6.87
2018-07-21T17:26:07.878Z,5.10
2018-07-21T17:28:40.263Z,5.37
2018-07-21T17:31:10.362Z,5.13
2018-07-21T17:33:40.369Z,7.57
2018-07-21T17:36:12.452Z,5.03
2018-07-21T17:38:42.282Z,5.47
2018-07-21T17:41:12.248Z,8.87
2018-07-21T17:43:45.873Z,6.60
2018-07-21T17:46:18.905Z,5.70
2018-07-21T17:48:50.738Z,6.63
2018-07-21T17:51:21.501Z,6.87
2018-07-21T17:53:51.425Z,6.80
2018-07-21T17:56:21.904Z,6.13
2018-07-21T17:58:53.875Z,6.10
2018-07-21T18:01:25.447Z,6.20
2018-07-21T18:03:56.244Z,5.43
2018-07-21T18:06:26.333Z,5.83
2018-07-21T18:08:56.506Z,6.30
2018-07-21T18:11:36.286Z,6.43
2018-07-21T18:14:22.005Z,5.80
2018-07-21T18:16:53.725Z,5.90
2018-07-21T18:19:42.865Z,5.77
2018-07-21T18:22:13.086Z,6.07
2018-07-21T18:24:44.535Z,6.57
2018-07-21T18:27:18.891Z,7.17
2018-07-21T18:29:48.965Z,6.47
2018-07-21T18:32:21.125Z,5.07
2018-07-21T18:34:55.441Z,5.20
2018-07-21T18:37:26.980Z,5.77
2018-07-21T18:39:59.297Z,5.50
2018-07-21T18:42:38.153Z,5.43
2018-07-21T18:45:17.493Z,5.13
2018-07-21T18:47:49.780Z,6.33
2018-07-21T18:50:32.569Z,6.03
2018-07-21T18:53:06.121Z,6.00
2018-07-21T18:55:37.671Z,6.67
2018-07-21T18:58:08.993Z,5.90
2018-07-21T19:00:38.996Z,8.53
2018-07-21T19:03:13.203Z,11.33
2018-07-21T19:05:44.431Z,6.57
2018-07-21T19:09:17.331Z,5.50
2018-07-21T19:11:58.574Z,5.53
2018-07-21T19:14:30.131Z,7.17
2018-07-21T19:17:01.864Z,5.87
2018-07-21T19:19:37.026Z,6.20
2018-07-21T19:22:07.257Z,6.10
2018-07-21T19:24:38.127Z,5.80
2018-07-21T19:27:14.162Z,6.40
2018-07-21T19:29:47.413Z,5.63
2018-07-21T19:32:55.140Z,6.17
2018-07-21T19:35:30.162Z,7.87
2018-07-21T19:38:03.156Z,6.57
2018-07-21T19:40:34.105Z,7.60
2018-07-21T19:43:04.637Z,6.60
2018-07-21T19:45:35.019Z,6.50
2018-07-21T19:48:06.453Z,6.77
2018-07-21T19:50:36.665Z,6.17
2018-07-21T19:53:06.717Z,5.87
2018-07-21T19:55:41.408Z,6.43
2018-07-21T19:58:12.206Z,7.33
2018-07-21T20:03:50.253Z,7.43
2018-07-21T20:06:29.337Z,6.93
2018-07-21T20:09:00.999Z,6.77
2018-07-21T20:11:47.504Z,8.17
2018-07-21T20:14:33.285Z,8.50
2018-07-21T20:22:29.055Z,7.20
2018-07-21T20:25:06.336Z,7.13
2018-07-21T20:27:37.226Z,7.60
2018-07-21T20:30:07.605Z,6.90
2018-07-21T20:32:38.863Z,7.87
2018-07-21T20:35:08.953Z,7.73
2018-07-21T20:37:45.852Z,7.70
2018-07-21T20:40:16.282Z,8.37
2018-07-21T20:46:03.047Z,7.47
2018-07-21T20:48:33.725Z,9.43
2018-07-21T20:51:03.851Z,10.57
2018-07-21T20:53:34.337Z,9.20
2018-07-21T20:56:04.369Z,32.87
2018-07-21T20:58:34.735Z,10.20
2018-07-21T21:04:27.575Z,10.93
2018-07-21T21:06:58.087Z,11.73
2018-07-21T21:09:31.233Z,9.23
2018-07-21T21:12:01.777Z,9.73
2018-07-21T21:14:32.762Z,9.20
2018-07-21T21:17:03.138Z,9.60
2018-07-21T21:19:39.590Z,11.03
2018-07-21T21:22:16.520Z,9.97
2018-07-21T21:24:49.657Z,9.37
2018-07-21T21:27:52.366Z,11.73
2018-07-21T21:30:42.527Z,10.33
2018-07-21T21:36:20.174Z,13.70
2018-07-21T21:38:50.411Z,11.70
2018-07-21T21:41:22.864Z,12.77
2018-07-21T21:43:52.756Z,11.90
2018-07-21T21:46:22.792Z,12.03
2018-07-21T21:48:52.839Z,13.10
2018-07-21T21:51:24.352Z,13.73
2018-07-21T21:53:54.275Z,9.87
2018-07-21T21:56:24.197Z,13.33
2018-07-21T21:58:54.726Z,11.77
2018-07-21T22:01:24.865Z,11.27
2018-07-21T22:03:54.841Z,11.93
2018-07-21T22:06:25.294Z,14.37
2018-07-21T22:08:55.228Z,12.10
2018-07-21T22:15:13.631Z,13.53
2018-07-21T22:17:44.476Z,12.07
2018-07-21T22:20:14.914Z,14.43
2018-07-21T22:22:45.443Z,11.47
2018-07-21T22:25:37.907Z,11.70
2018-07-21T22:28:08.341Z,12.37
2018-07-21T22:30:38.301Z,15.03
2018-07-21T22:33:09.847Z,11.80
2018-07-21T22:35:39.766Z,12.53
2018-07-21T22:38:09.676Z,11.97
2018-07-21T22:40:39.858Z,14.03
2018-07-21T22:43:09.750Z,14.07
2018-07-21T22:45:39.694Z,12.17
2018-07-21T22:48:09.627Z,12.17
2018-07-21T22:50:39.823Z,12.67
2018-07-21T22:53:09.740Z,12.43
2018-07-21T22:55:39.651Z,12.33
2018-07-21T22:58:10.863Z,12.23
2018-07-21T23:00:42.969Z,15.77
2018-07-21T23:03:13.026Z,13.57
2018-07-21T23:05:43.259Z,13.47
2018-07-21T23:08:13.604Z,13.90
2018-07-21T23:10:43.909Z,15.90
2018-07-21T23:13:14.642Z,12.30
2018-07-21T23:15:45.733Z,14.67
2018-07-21T23:18:18.460Z,13.30
2018-07-21T23:20:48.593Z,15.40
2018-07-21T23:23:21.059Z,15.07
2018-07-21T23:25:51.628Z,12.33
2018-07-21T23:29:37.030Z,12.20
2018-07-21T23:32:08.023Z,12.53
2018-07-21T23:34:38.745Z,15.60
2018-07-21T23:37:09.975Z,14.07
2018-07-21T23:39:40.103Z,13.47
2018-07-21T23:42:11.005Z,14.67
2018-07-21T23:44:41.264Z,12.67
2018-07-21T23:47:19.264Z,13.97
2018-07-21T23:49:54.997Z,13.83
2018-07-21T23:53:54.925Z,20.37
2018-07-21T23:56:25.850Z,15.67
2018-07-21T23:58:56.100Z,15.27
